Birch Hills, Canada
Current Conditions -  °F | °C
As of 3:00 AM on Thursday 27 Nov 2014 (Local Time) from CYPA Reporting Station
Light Snow Light Snow  
Wind Chill: -6°   Ceiling: Unl
Heat Index: -6°   Visibility: 15mi
Dew Point: -9°   Wind: 3mph
Humidity: 84%   Direction: 100°E
Pressure: 30.23"   Gusts: NA
Location:  52.98°N, 105.44°W
Report Text: CYPA 270900Z 10003KT 15SM -SN SCT039 M21/M23 A3023 RMK SC3 SLP286
Loading
Personal Weather Stations






























Interactive Weather Map New forecast layout! Learn more

10-Day Weather Forecast

Advertisements
Track Severe Weather on mobile